createdAt,value
2018-07-16T00:00:08.000Z,30
2018-07-16T00:01:08.000Z,30
2018-07-16T00:02:08.000Z,30
2018-07-16T00:04:08.000Z,30
2018-07-16T00:05:08.000Z,30
2018-07-16T00:06:08.000Z,30
2018-07-16T00:07:08.000Z,30
2018-07-16T00:08:08.000Z,30
2018-07-16T00:09:08.000Z,30
2018-07-16T00:10:08.000Z,30
2018-07-16T00:11:08.000Z,30
2018-07-16T00:12:08.000Z,30
2018-07-16T00:14:08.000Z,30
2018-07-16T00:15:08.000Z,30
2018-07-16T00:16:08.000Z,30
2018-07-16T00:18:08.000Z,30
2018-07-16T00:19:08.000Z,30
2018-07-16T00:20:08.000Z,30
2018-07-16T00:21:08.000Z,30
2018-07-16T00:23:08.000Z,30
2018-07-16T00:24:08.000Z,30
2018-07-16T00:26:08.000Z,30
2018-07-16T00:27:08.000Z,30
2018-07-16T00:28:08.000Z,30
2018-07-16T00:29:08.000Z,30
2018-07-16T00:30:08.000Z,30
2018-07-16T00:31:08.000Z,30
2018-07-16T00:32:08.000Z,30
2018-07-16T00:33:08.000Z,30
2018-07-16T00:34:08.000Z,30
2018-07-16T00:36:08.000Z,30
2018-07-16T00:37:08.000Z,30
2018-07-16T00:38:08.000Z,30
2018-07-16T00:39:08.000Z,30
2018-07-16T00:40:08.000Z,30
2018-07-16T00:42:08.000Z,30
2018-07-16T00:43:08.000Z,30
2018-07-16T00:44:08.000Z,30
2018-07-16T00:45:08.000Z,30
2018-07-16T00:46:08.000Z,30
2018-07-16T00:47:08.000Z,30
2018-07-16T00:49:08.000Z,30
2018-07-16T00:50:08.000Z,30
2018-07-16T00:51:08.000Z,30
2018-07-16T00:52:08.000Z,30
2018-07-16T00:53:08.000Z,30
2018-07-16T00:54:08.000Z,30
2018-07-16T00:56:08.000Z,30
2018-07-16T00:57:08.000Z,30
2018-07-16T00:58:08.000Z,30
2018-07-16T01:00:08.000Z,30
2018-07-16T01:01:08.000Z,30
2018-07-16T01:02:08.000Z,30
2018-07-16T01:03:08.000Z,30
2018-07-16T01:05:08.000Z,30
2018-07-16T01:06:08.000Z,30
2018-07-16T01:07:08.000Z,30
2018-07-16T01:08:08.000Z,30
2018-07-16T01:09:08.000Z,30
2018-07-16T01:10:08.000Z,30
2018-07-16T01:11:08.000Z,30
2018-07-16T01:12:08.000Z,30
2018-07-16T01:13:08.000Z,30
2018-07-16T01:14:08.000Z,30
2018-07-16T01:15:08.000Z,30
2018-07-16T01:16:08.000Z,30
2018-07-16T01:18:08.000Z,30
2018-07-16T01:19:08.000Z,30
2018-07-16T01:20:08.000Z,30
2018-07-16T01:21:08.000Z,30
2018-07-16T01:22:08.000Z,30
2018-07-16T01:23:08.000Z,30
2018-07-16T01:24:08.000Z,30
2018-07-16T01:25:08.000Z,30
2018-07-16T01:26:08.000Z,30
2018-07-16T01:27:08.000Z,30
2018-07-16T01:28:08.000Z,30
2018-07-16T01:29:08.000Z,30
2018-07-16T01:30:08.000Z,30
2018-07-16T01:32:08.000Z,30
2018-07-16T01:33:08.000Z,30
2018-07-16T01:34:08.000Z,30
2018-07-16T01:35:08.000Z,30
2018-07-16T01:36:08.000Z,30
2018-07-16T01:37:08.000Z,30
2018-07-16T01:38:08.000Z,30
2018-07-16T01:39:08.000Z,30
2018-07-16T01:40:08.000Z,30
2018-07-16T01:41:08.000Z,30
2018-07-16T01:42:08.000Z,30
2018-07-16T01:43:08.000Z,30
2018-07-16T01:44:08.000Z,30
2018-07-16T01:45:08.000Z,30
2018-07-16T01:46:08.000Z,30
2018-07-16T01:47:08.000Z,30
2018-07-16T01:48:08.000Z,30
2018-07-16T01:49:08.000Z,30
2018-07-16T01:50:08.000Z,30
2018-07-16T01:51:08.000Z,30
2018-07-16T01:52:08.000Z,30
2018-07-16T01:53:08.000Z,30
2018-07-16T01:54:08.000Z,30
2018-07-16T01:55:08.000Z,30
2018-07-16T01:57:08.000Z,30
2018-07-16T01:58:08.000Z,30
2018-07-16T01:59:08.000Z,30
2018-07-16T02:00:08.000Z,30
2018-07-16T02:02:08.000Z,30
2018-07-16T02:03:08.000Z,30
2018-07-16T02:04:08.000Z,30
2018-07-16T02:05:08.000Z,30
2018-07-16T02:06:08.000Z,30
2018-07-16T02:07:08.000Z,30
2018-07-16T02:08:08.000Z,30
2018-07-16T02:09:08.000Z,30
2018-07-16T02:10:08.000Z,30
2018-07-16T02:11:08.000Z,30
2018-07-16T02:13:08.000Z,30
2018-07-16T02:15:08.000Z,30
2018-07-16T02:16:08.000Z,30
2018-07-16T02:17:08.000Z,30
2018-07-16T02:18:08.000Z,30
2018-07-16T02:19:08.000Z,30
2018-07-16T02:20:08.000Z,30
2018-07-16T02:22:08.000Z,30
2018-07-16T02:23:08.000Z,30
2018-07-16T02:24:08.000Z,30
2018-07-16T02:25:08.000Z,30
2018-07-16T02:26:08.000Z,30
2018-07-16T02:27:08.000Z,30
2018-07-16T02:28:08.000Z,30
2018-07-16T02:29:08.000Z,30
2018-07-16T02:30:08.000Z,30
2018-07-16T02:31:08.000Z,30
2018-07-16T02:32:08.000Z,30
2018-07-16T02:33:08.000Z,30
2018-07-16T02:34:08.000Z,30
2018-07-16T02:35:08.000Z,30
2018-07-16T02:36:08.000Z,30
2018-07-16T02:37:08.000Z,30
2018-07-16T02:38:08.000Z,30
2018-07-16T02:39:08.000Z,30
2018-07-16T02:40:08.000Z,30
2018-07-16T02:41:08.000Z,30
2018-07-16T02:42:08.000Z,30
2018-07-16T02:44:08.000Z,30
2018-07-16T02:45:08.000Z,30
2018-07-16T02:46:08.000Z,30
2018-07-16T02:47:08.000Z,30
2018-07-16T02:48:08.000Z,30
2018-07-16T02:49:08.000Z,30
2018-07-16T02:50:08.000Z,30
2018-07-16T02:51:08.000Z,30
2018-07-16T02:52:08.000Z,30
2018-07-16T02:53:08.000Z,30
2018-07-16T02:54:08.000Z,30
2018-07-16T02:55:08.000Z,30
2018-07-16T02:57:08.000Z,30
2018-07-16T02:58:08.000Z,30
2018-07-16T02:59:08.000Z,30
2018-07-16T03:01:08.000Z,30
2018-07-16T03:02:08.000Z,30
2018-07-16T03:03:08.000Z,30
2018-07-16T03:04:08.000Z,30
2018-07-16T03:05:08.000Z,30
2018-07-16T03:06:08.000Z,30
2018-07-16T03:07:08.000Z,30
2018-07-16T03:08:08.000Z,30
2018-07-16T03:09:08.000Z,30
2018-07-16T03:10:08.000Z,30
2018-07-16T03:11:08.000Z,30
2018-07-16T03:12:08.000Z,30
2018-07-16T03:13:08.000Z,30
2018-07-16T03:14:08.000Z,30
2018-07-16T03:15:08.000Z,30
2018-07-16T03:16:08.000Z,30
2018-07-16T03:17:08.000Z,30
2018-07-16T03:19:08.000Z,30
2018-07-16T03:20:08.000Z,30
2018-07-16T03:22:08.000Z,30
2018-07-16T03:23:08.000Z,30
2018-07-16T03:24:08.000Z,30
2018-07-16T03:26:08.000Z,30
2018-07-16T03:27:08.000Z,30
2018-07-16T03:28:08.000Z,30
2018-07-16T03:29:08.000Z,30
2018-07-16T03:30:08.000Z,30
2018-07-16T03:31:08.000Z,30
2018-07-16T03:32:08.000Z,30
2018-07-16T03:33:08.000Z,30
2018-07-16T03:34:08.000Z,30
2018-07-16T03:36:08.000Z,30
2018-07-16T03:37:08.000Z,30
2018-07-16T03:39:08.000Z,30
2018-07-16T03:40:08.000Z,30
2018-07-16T03:41:08.000Z,30
2018-07-16T03:42:08.000Z,30
2018-07-16T03:44:08.000Z,30
2018-07-16T03:45:08.000Z,30
2018-07-16T03:46:08.000Z,30
2018-07-16T03:47:08.000Z,30
2018-07-16T03:49:08.000Z,30
2018-07-16T03:50:08.000Z,30
2018-07-16T03:51:08.000Z,30
2018-07-16T03:52:08.000Z,30
2018-07-16T03:53:08.000Z,30
2018-07-16T03:54:08.000Z,30
2018-07-16T03:55:08.000Z,30
2018-07-16T03:56:08.000Z,30
2018-07-16T03:57:08.000Z,30
2018-07-16T03:58:08.000Z,30
2018-07-16T03:59:08.000Z,30
2018-07-16T04:01:08.000Z,30
2018-07-16T04:02:08.000Z,30
2018-07-16T04:03:08.000Z,30
2018-07-16T04:05:08.000Z,30
2018-07-16T04:06:08.000Z,30
2018-07-16T04:08:08.000Z,30
2018-07-16T04:09:08.000Z,30
2018-07-16T04:11:08.000Z,30
2018-07-16T04:12:08.000Z,30
2018-07-16T04:13:08.000Z,30
2018-07-16T04:14:08.000Z,30
2018-07-16T04:15:08.000Z,30
2018-07-16T04:16:08.000Z,30
2018-07-16T04:17:08.000Z,30
2018-07-16T04:18:08.000Z,30
2018-07-16T04:19:08.000Z,30
2018-07-16T04:20:08.000Z,30
2018-07-16T04:21:08.000Z,30
2018-07-16T04:22:08.000Z,30
2018-07-16T04:23:08.000Z,30
2018-07-16T04:24:08.000Z,30
2018-07-16T04:25:08.000Z,30
2018-07-16T04:26:08.000Z,30
2018-07-16T04:27:08.000Z,31
2018-07-16T04:29:08.000Z,32
2018-07-16T04:30:08.000Z,32
2018-07-16T04:31:08.000Z,33
2018-07-16T04:32:08.000Z,33
2018-07-16T04:33:08.000Z,33
2018-07-16T04:34:08.000Z,34
2018-07-16T04:35:08.000Z,34
2018-07-16T04:36:08.000Z,34
2018-07-16T04:37:08.000Z,35
2018-07-16T04:38:08.000Z,35
2018-07-16T04:39:08.000Z,35
2018-07-16T04:40:08.000Z,35
2018-07-16T04:41:08.000Z,35
2018-07-16T04:43:08.000Z,36
2018-07-16T04:44:08.000Z,36
2018-07-16T04:46:08.000Z,35
2018-07-16T04:47:08.000Z,36
2018-07-16T04:48:08.000Z,36
2018-07-16T04:49:08.000Z,36
2018-07-16T04:50:08.000Z,36
2018-07-16T04:52:08.000Z,37
2018-07-16T04:53:08.000Z,37
2018-07-16T04:54:08.000Z,38
2018-07-16T04:55:08.000Z,37
2018-07-16T04:56:08.000Z,38
2018-07-16T04:57:08.000Z,38
2018-07-16T04:59:08.000Z,38
2018-07-16T05:01:08.000Z,38
2018-07-16T05:02:08.000Z,38
2018-07-16T05:03:08.000Z,38
2018-07-16T05:04:08.000Z,38
2018-07-16T05:05:08.000Z,38
2018-07-16T05:06:08.000Z,38
2018-07-16T05:07:08.000Z,38
2018-07-16T05:09:08.000Z,38
2018-07-16T05:10:08.000Z,38
2018-07-16T05:11:08.000Z,38
2018-07-16T05:12:08.000Z,39
2018-07-16T05:13:08.000Z,39
2018-07-16T05:15:08.000Z,39
2018-07-16T05:17:08.000Z,39
2018-07-16T05:18:08.000Z,40
2018-07-16T05:19:08.000Z,40
2018-07-16T05:21:08.000Z,41
2018-07-16T05:22:08.000Z,41
2018-07-16T05:23:08.000Z,42
2018-07-16T05:24:08.000Z,42
2018-07-16T05:25:08.000Z,42
2018-07-16T05:26:08.000Z,43
2018-07-16T05:27:08.000Z,43
2018-07-16T05:28:08.000Z,43
2018-07-16T05:29:08.000Z,43
2018-07-16T05:30:08.000Z,43
2018-07-16T05:31:08.000Z,44
2018-07-16T05:32:08.000Z,44
2018-07-16T05:33:08.000Z,44
2018-07-16T05:34:08.000Z,44
2018-07-16T05:35:08.000Z,44
2018-07-16T05:37:08.000Z,44
2018-07-16T05:38:08.000Z,44
2018-07-16T05:39:08.000Z,44
2018-07-16T05:40:08.000Z,44
2018-07-16T05:41:08.000Z,44
2018-07-16T05:42:08.000Z,44
2018-07-16T05:43:08.000Z,44
2018-07-16T05:44:08.000Z,44
2018-07-16T05:45:08.000Z,44
2018-07-16T05:46:08.000Z,44
2018-07-16T05:47:08.000Z,44
2018-07-16T05:48:08.000Z,44
2018-07-16T05:49:08.000Z,44
2018-07-16T05:50:08.000Z,44
2018-07-16T05:51:08.000Z,43
2018-07-16T05:52:08.000Z,43
2018-07-16T05:54:08.000Z,43
2018-07-16T05:55:08.000Z,43
2018-07-16T05:56:08.000Z,43
2018-07-16T05:59:54.000Z,43
2018-07-16T06:00:54.000Z,43
2018-07-16T06:01:54.000Z,43
2018-07-16T06:02:54.000Z,43
2018-07-16T06:03:54.000Z,43
2018-07-16T06:04:54.000Z,43
2018-07-16T06:05:54.000Z,43
2018-07-16T06:06:54.000Z,42
2018-07-16T06:07:54.000Z,42
2018-07-16T06:08:54.000Z,42
2018-07-16T06:09:54.000Z,42
2018-07-16T06:10:54.000Z,42
2018-07-16T06:11:54.000Z,42
2018-07-16T06:12:54.000Z,41
2018-07-16T06:13:54.000Z,41
2018-07-16T06:14:54.000Z,41
2018-07-16T06:15:54.000Z,41
2018-07-16T06:16:54.000Z,41
2018-07-16T06:17:54.000Z,40
2018-07-16T06:18:54.000Z,40
2018-07-16T06:19:54.000Z,40
2018-07-16T06:20:54.000Z,40
2018-07-16T06:21:54.000Z,40
2018-07-16T06:22:54.000Z,40
2018-07-16T06:24:54.000Z,39
2018-07-16T06:25:54.000Z,39
2018-07-16T06:26:54.000Z,39
2018-07-16T06:27:54.000Z,39
2018-07-16T06:28:54.000Z,39
2018-07-16T06:29:54.000Z,39
2018-07-16T06:31:54.000Z,39
2018-07-16T06:32:54.000Z,39
2018-07-16T06:33:54.000Z,39
2018-07-16T06:34:54.000Z,39
2018-07-16T06:35:54.000Z,39
2018-07-16T06:36:54.000Z,39
2018-07-16T06:37:54.000Z,38
2018-07-16T06:38:54.000Z,38
2018-07-16T06:40:54.000Z,38
2018-07-16T06:41:54.000Z,38
2018-07-16T06:42:54.000Z,38
2018-07-16T06:43:54.000Z,38
2018-07-16T06:44:54.000Z,38
2018-07-16T06:45:54.000Z,38
2018-07-16T06:47:54.000Z,38
2018-07-16T06:48:54.000Z,38
2018-07-16T06:50:54.000Z,38
2018-07-16T06:51:54.000Z,38
2018-07-16T06:52:54.000Z,38
2018-07-16T06:54:54.000Z,38
2018-07-16T06:55:54.000Z,38
2018-07-16T06:56:54.000Z,38
2018-07-16T06:58:54.000Z,38
2018-07-16T06:59:54.000Z,38
2018-07-16T07:00:54.000Z,38
2018-07-16T07:01:54.000Z,38
2018-07-16T07:02:54.000Z,38
2018-07-16T07:03:54.000Z,38
2018-07-16T07:04:54.000Z,38
2018-07-16T07:05:54.000Z,38
2018-07-16T07:07:54.000Z,38
2018-07-16T07:08:54.000Z,38
2018-07-16T07:09:54.000Z,38
2018-07-16T07:10:54.000Z,38
2018-07-16T07:11:54.000Z,38
2018-07-16T07:12:54.000Z,38
2018-07-16T07:14:54.000Z,37
2018-07-16T07:16:54.000Z,37
2018-07-16T07:17:54.000Z,37
2018-07-16T07:18:54.000Z,37
2018-07-16T07:19:54.000Z,37
2018-07-16T07:20:54.000Z,37
2018-07-16T07:21:54.000Z,37
2018-07-16T07:23:54.000Z,37
2018-07-16T07:24:54.000Z,37
2018-07-16T07:25:54.000Z,37
2018-07-16T07:26:54.000Z,37
2018-07-16T07:27:54.000Z,37
2018-07-16T07:28:54.000Z,37
2018-07-16T07:29:54.000Z,37
2018-07-16T07:30:54.000Z,37
2018-07-16T07:31:54.000Z,37
2018-07-16T07:33:54.000Z,37
2018-07-16T07:34:54.000Z,37
2018-07-16T07:35:54.000Z,37
2018-07-16T07:36:54.000Z,36
2018-07-16T07:37:54.000Z,36
2018-07-16T07:38:54.000Z,36
2018-07-16T07:39:54.000Z,36
2018-07-16T07:40:54.000Z,36
2018-07-16T07:41:54.000Z,36
2018-07-16T07:42:54.000Z,36
2018-07-16T07:43:54.000Z,36
2018-07-16T07:45:54.000Z,36
2018-07-16T07:46:54.000Z,36
2018-07-16T07:47:54.000Z,36
2018-07-16T07:48:54.000Z,35
2018-07-16T07:49:54.000Z,35
2018-07-16T07:51:54.000Z,35
2018-07-16T07:52:54.000Z,35
2018-07-16T07:53:54.000Z,35
2018-07-16T07:54:54.000Z,35
2018-07-16T07:55:54.000Z,35
2018-07-16T07:56:54.000Z,35
2018-07-16T07:57:54.000Z,35
2018-07-16T07:58:54.000Z,35
2018-07-16T07:59:54.000Z,35
2018-07-16T08:00:54.000Z,35
2018-07-16T08:01:54.000Z,35
2018-07-16T08:02:54.000Z,35
2018-07-16T08:03:54.000Z,35
2018-07-16T08:04:54.000Z,34
2018-07-16T08:05:54.000Z,34
2018-07-16T08:06:54.000Z,34
2018-07-16T08:08:54.000Z,34
2018-07-16T08:09:54.000Z,34
2018-07-16T08:10:54.000Z,34
2018-07-16T08:12:54.000Z,34
2018-07-16T08:13:54.000Z,34
2018-07-16T08:14:54.000Z,34
2018-07-16T08:15:54.000Z,34
2018-07-16T08:17:54.000Z,34
2018-07-16T08:18:54.000Z,34
2018-07-16T08:19:54.000Z,34
2018-07-16T08:20:54.000Z,33
2018-07-16T08:21:54.000Z,33
2018-07-16T08:22:54.000Z,33
2018-07-16T08:23:54.000Z,33
2018-07-16T08:24:54.000Z,33
2018-07-16T08:25:54.000Z,33
2018-07-16T08:26:54.000Z,33
2018-07-16T08:27:54.000Z,33
2018-07-16T08:28:54.000Z,33
2018-07-16T08:30:54.000Z,32
2018-07-16T08:31:54.000Z,32
2018-07-16T08:32:54.000Z,32
2018-07-16T08:33:54.000Z,32
2018-07-16T08:34:54.000Z,31
2018-07-16T08:35:54.000Z,31
2018-07-16T08:36:54.000Z,31
2018-07-16T08:37:54.000Z,30
2018-07-16T08:38:54.000Z,30
2018-07-16T08:39:54.000Z,29
2018-07-16T08:40:54.000Z,29
2018-07-16T08:41:54.000Z,29
2018-07-16T08:43:54.000Z,29
2018-07-16T08:45:54.000Z,30
2018-07-16T08:47:54.000Z,30
2018-07-16T08:49:54.000Z,31
2018-07-16T08:50:54.000Z,31
2018-07-16T08:51:54.000Z,31
2018-07-16T08:52:53.000Z,31
2018-07-16T08:53:53.000Z,31
2018-07-16T08:55:53.000Z,31
2018-07-16T08:56:53.000Z,31
2018-07-16T08:57:53.000Z,31
2018-07-16T08:58:53.000Z,32
2018-07-16T08:59:53.000Z,32
2018-07-16T09:00:53.000Z,32
2018-07-16T09:01:53.000Z,32
2018-07-16T09:02:53.000Z,32
2018-07-16T09:03:53.000Z,32
2018-07-16T09:04:53.000Z,31
2018-07-16T09:05:53.000Z,32
2018-07-16T09:06:53.000Z,31
2018-07-16T09:07:53.000Z,32
2018-07-16T09:08:53.000Z,32
2018-07-16T09:09:53.000Z,32
2018-07-16T09:10:53.000Z,32
2018-07-16T09:11:53.000Z,31
2018-07-16T09:12:53.000Z,31
2018-07-16T09:13:53.000Z,32
2018-07-16T09:14:53.000Z,32
2018-07-16T09:16:53.000Z,32
2018-07-16T09:17:53.000Z,32
2018-07-16T09:18:53.000Z,32
2018-07-16T09:19:53.000Z,32
2018-07-16T09:20:53.000Z,32
2018-07-16T09:22:53.000Z,32
2018-07-16T09:23:53.000Z,32
2018-07-16T09:24:53.000Z,32
2018-07-16T09:25:53.000Z,32
2018-07-16T09:26:53.000Z,32
2018-07-16T09:27:53.000Z,31
2018-07-16T09:28:53.000Z,31
2018-07-16T09:29:53.000Z,31
2018-07-16T09:30:53.000Z,31
2018-07-16T09:32:53.000Z,31
2018-07-16T09:33:53.000Z,31
2018-07-16T09:34:53.000Z,31
2018-07-16T09:35:53.000Z,31
2018-07-16T09:36:53.000Z,31
2018-07-16T09:38:53.000Z,31
2018-07-16T09:39:53.000Z,31
2018-07-16T09:40:53.000Z,31
2018-07-16T09:41:53.000Z,31
2018-07-16T09:42:53.000Z,31
2018-07-16T09:44:53.000Z,31
2018-07-16T09:45:53.000Z,31
2018-07-16T09:46:53.000Z,31
2018-07-16T09:47:53.000Z,31
2018-07-16T09:48:53.000Z,31
2018-07-16T09:49:53.000Z,31
2018-07-16T09:50:53.000Z,30
2018-07-16T09:51:53.000Z,30
2018-07-16T09:52:53.000Z,30
2018-07-16T09:53:53.000Z,31
2018-07-16T09:54:53.000Z,31
2018-07-16T09:55:53.000Z,31
2018-07-16T09:56:53.000Z,30
2018-07-16T09:57:53.000Z,30
2018-07-16T09:58:53.000Z,30
2018-07-16T10:00:53.000Z,30
2018-07-16T10:01:53.000Z,30
2018-07-16T10:02:53.000Z,30
2018-07-16T10:03:53.000Z,30
2018-07-16T10:04:53.000Z,30
2018-07-16T10:05:53.000Z,30
2018-07-16T10:06:53.000Z,30
2018-07-16T10:07:53.000Z,30
2018-07-16T10:08:53.000Z,30
2018-07-16T10:09:53.000Z,30
2018-07-16T10:10:53.000Z,30
2018-07-16T10:11:53.000Z,30
2018-07-16T10:12:53.000Z,30
2018-07-16T10:13:53.000Z,30
2018-07-16T10:14:53.000Z,30
2018-07-16T10:15:53.000Z,30
2018-07-16T10:16:53.000Z,30
2018-07-16T10:17:53.000Z,30
2018-07-16T10:19:53.000Z,30
2018-07-16T10:20:53.000Z,30
2018-07-16T10:21:53.000Z,29
2018-07-16T10:22:53.000Z,30
2018-07-16T10:23:53.000Z,30
2018-07-16T10:24:53.000Z,30
2018-07-16T10:25:53.000Z,29
2018-07-16T10:26:53.000Z,29
2018-07-16T10:27:53.000Z,29
2018-07-16T10:28:53.000Z,29
2018-07-16T10:30:53.000Z,29
2018-07-16T10:31:53.000Z,29
2018-07-16T10:32:53.000Z,29
2018-07-16T10:33:53.000Z,29
2018-07-16T10:34:53.000Z,29
2018-07-16T10:35:53.000Z,29
2018-07-16T10:36:53.000Z,29
2018-07-16T10:38:53.000Z,29
2018-07-16T10:39:53.000Z,29
2018-07-16T10:40:53.000Z,29
2018-07-16T10:42:53.000Z,29
2018-07-16T10:43:53.000Z,29
2018-07-16T10:44:53.000Z,29
2018-07-16T10:45:53.000Z,29
2018-07-16T10:47:53.000Z,29
2018-07-16T10:48:53.000Z,29
2018-07-16T10:49:53.000Z,29
2018-07-16T10:50:53.000Z,29
2018-07-16T10:51:53.000Z,29
2018-07-16T10:52:53.000Z,29
2018-07-16T10:53:53.000Z,29
2018-07-16T10:54:53.000Z,28
2018-07-16T10:55:53.000Z,28
2018-07-16T10:57:53.000Z,28
2018-07-16T10:58:53.000Z,28
2018-07-16T10:59:53.000Z,28
2018-07-16T11:01:53.000Z,28
2018-07-16T11:02:53.000Z,28
2018-07-16T11:04:53.000Z,28
2018-07-16T11:05:53.000Z,28
2018-07-16T11:06:53.000Z,28
2018-07-16T11:07:53.000Z,28
2018-07-16T11:08:53.000Z,27
2018-07-16T11:09:53.000Z,27
2018-07-16T11:10:53.000Z,27
2018-07-16T11:11:53.000Z,27
2018-07-16T11:12:53.000Z,27
2018-07-16T11:13:53.000Z,27
2018-07-16T11:14:53.000Z,27
2018-07-16T11:15:53.000Z,27
2018-07-16T11:16:53.000Z,27
2018-07-16T11:18:53.000Z,27
2018-07-16T11:20:53.000Z,26
2018-07-16T11:21:53.000Z,26
2018-07-16T11:22:53.000Z,26
2018-07-16T11:23:53.000Z,26
2018-07-16T11:24:53.000Z,26
2018-07-16T11:25:53.000Z,26
2018-07-16T11:26:53.000Z,26
2018-07-16T11:27:53.000Z,26
2018-07-16T11:28:53.000Z,26
2018-07-16T11:29:53.000Z,26
2018-07-16T11:30:53.000Z,26
2018-07-16T11:31:53.000Z,26
2018-07-16T11:33:53.000Z,26
2018-07-16T11:34:53.000Z,26
2018-07-16T11:35:53.000Z,26
2018-07-16T11:37:53.000Z,25
2018-07-16T11:38:53.000Z,26
2018-07-16T11:39:53.000Z,25
2018-07-16T11:40:53.000Z,26
2018-07-16T11:41:53.000Z,26
2018-07-16T11:42:53.000Z,25
2018-07-16T11:43:53.000Z,25
2018-07-16T11:44:53.000Z,26
2018-07-16T11:45:53.000Z,26
2018-07-16T11:46:53.000Z,26
2018-07-16T11:47:53.000Z,26
2018-07-16T11:48:53.000Z,26
2018-07-16T11:50:53.000Z,26
2018-07-16T11:51:53.000Z,26
2018-07-16T11:52:53.000Z,26
2018-07-16T11:54:53.000Z,26
2018-07-16T11:56:53.000Z,26
2018-07-16T11:57:53.000Z,26
2018-07-16T11:58:53.000Z,26
2018-07-16T11:59:53.000Z,26
2018-07-16T12:01:53.000Z,26
2018-07-16T12:02:53.000Z,26
2018-07-16T12:03:54.000Z,26
2018-07-16T12:05:54.000Z,26
2018-07-16T12:06:54.000Z,26
2018-07-16T12:08:54.000Z,26
2018-07-16T12:09:54.000Z,26
2018-07-16T12:10:54.000Z,26
2018-07-16T12:12:54.000Z,26
2018-07-16T12:13:54.000Z,26
2018-07-16T12:14:54.000Z,26
2018-07-16T12:15:54.000Z,26
2018-07-16T12:16:54.000Z,26
2018-07-16T12:17:54.000Z,26
2018-07-16T12:18:54.000Z,26
2018-07-16T12:19:54.000Z,26
2018-07-16T12:20:54.000Z,26
2018-07-16T12:21:54.000Z,26
2018-07-16T12:22:54.000Z,26
2018-07-16T12:24:54.000Z,26
2018-07-16T12:25:54.000Z,26
2018-07-16T12:26:54.000Z,26
2018-07-16T12:28:54.000Z,25
2018-07-16T12:29:54.000Z,25
2018-07-16T12:30:54.000Z,25
2018-07-16T12:31:54.000Z,25
2018-07-16T12:32:54.000Z,25
2018-07-16T12:33:54.000Z,25
2018-07-16T12:34:54.000Z,25
2018-07-16T12:35:54.000Z,25
2018-07-16T12:36:54.000Z,25
2018-07-16T12:37:54.000Z,25
2018-07-16T12:38:54.000Z,25
2018-07-16T12:39:54.000Z,25
2018-07-16T12:40:54.000Z,25
2018-07-16T12:41:54.000Z,25
2018-07-16T12:42:54.000Z,25
2018-07-16T12:43:54.000Z,25
2018-07-16T12:44:54.000Z,25
2018-07-16T12:46:54.000Z,25
2018-07-16T12:47:54.000Z,24
2018-07-16T12:48:54.000Z,24
2018-07-16T12:49:54.000Z,24
2018-07-16T12:51:54.000Z,25
2018-07-16T12:52:54.000Z,25
2018-07-16T12:53:54.000Z,25
2018-07-16T12:54:54.000Z,25
2018-07-16T12:55:54.000Z,25
2018-07-16T12:56:54.000Z,25
2018-07-16T12:58:54.000Z,25
2018-07-16T12:59:54.000Z,25
2018-07-16T13:00:54.000Z,25
2018-07-16T13:01:54.000Z,25
2018-07-16T13:02:54.000Z,25
2018-07-16T13:03:54.000Z,25
2018-07-16T13:04:54.000Z,25
2018-07-16T13:05:54.000Z,25
2018-07-16T13:06:54.000Z,25
2018-07-16T13:08:54.000Z,25
2018-07-16T13:09:54.000Z,25
2018-07-16T13:11:54.000Z,25
2018-07-16T13:12:54.000Z,25
2018-07-16T13:13:54.000Z,25
2018-07-16T13:14:54.000Z,25
2018-07-16T13:15:54.000Z,25
2018-07-16T13:16:54.000Z,25
2018-07-16T13:18:54.000Z,25
2018-07-16T13:19:54.000Z,25
2018-07-16T13:20:54.000Z,25
2018-07-16T13:21:54.000Z,25
2018-07-16T13:23:54.000Z,25
2018-07-16T13:24:54.000Z,25
2018-07-16T13:25:54.000Z,25
2018-07-16T13:26:54.000Z,25
2018-07-16T13:27:54.000Z,24
2018-07-16T13:28:54.000Z,24
2018-07-16T13:29:54.000Z,24
2018-07-16T13:30:54.000Z,24
2018-07-16T13:31:54.000Z,24
2018-07-16T13:32:54.000Z,24
2018-07-16T13:33:54.000Z,24
2018-07-16T13:34:54.000Z,24
2018-07-16T13:35:54.000Z,24
2018-07-16T13:36:54.000Z,24
2018-07-16T13:37:54.000Z,24
2018-07-16T13:38:54.000Z,24
2018-07-16T13:39:54.000Z,24
2018-07-16T13:40:54.000Z,24
2018-07-16T13:41:54.000Z,24
2018-07-16T13:42:54.000Z,24
2018-07-16T13:44:54.000Z,24
2018-07-16T13:45:54.000Z,24
2018-07-16T13:46:54.000Z,24
2018-07-16T13:47:54.000Z,24
2018-07-16T13:48:54.000Z,24
2018-07-16T13:49:54.000Z,24
2018-07-16T13:50:54.000Z,24
2018-07-16T13:51:54.000Z,24
2018-07-16T13:52:54.000Z,24
2018-07-16T13:54:54.000Z,24
2018-07-16T13:55:54.000Z,24
2018-07-16T13:56:54.000Z,24
2018-07-16T13:57:54.000Z,24
2018-07-16T13:58:54.000Z,24
2018-07-16T13:59:54.000Z,24
2018-07-16T14:00:54.000Z,24
2018-07-16T14:01:54.000Z,24
2018-07-16T14:03:54.000Z,24
2018-07-16T14:04:54.000Z,24
2018-07-16T14:06:54.000Z,24
2018-07-16T14:07:54.000Z,24
2018-07-16T14:08:54.000Z,24
2018-07-16T14:10:53.000Z,24
2018-07-16T14:11:53.000Z,25
2018-07-16T14:12:53.000Z,25
2018-07-16T14:13:53.000Z,25
2018-07-16T14:14:53.000Z,25
2018-07-16T14:16:53.000Z,25
2018-07-16T14:17:53.000Z,25
2018-07-16T14:18:53.000Z,25
2018-07-16T14:19:53.000Z,25
2018-07-16T14:20:53.000Z,25
2018-07-16T14:21:53.000Z,25
2018-07-16T14:22:53.000Z,25
2018-07-16T14:23:53.000Z,25
2018-07-16T14:24:53.000Z,25
2018-07-16T14:25:53.000Z,25
2018-07-16T14:26:53.000Z,24
2018-07-16T14:27:53.000Z,24
2018-07-16T14:28:53.000Z,24
2018-07-16T14:29:53.000Z,24
2018-07-16T14:30:53.000Z,25
2018-07-16T14:31:53.000Z,24
2018-07-16T14:32:53.000Z,25
2018-07-16T14:34:53.000Z,24
2018-07-16T14:35:53.000Z,25
2018-07-16T14:36:53.000Z,25
2018-07-16T14:37:53.000Z,24
2018-07-16T14:38:53.000Z,24
2018-07-16T14:39:53.000Z,24
2018-07-16T14:40:53.000Z,24
2018-07-16T14:42:53.000Z,24
2018-07-16T14:43:53.000Z,24
2018-07-16T14:44:53.000Z,24
2018-07-16T14:45:53.000Z,24
2018-07-16T14:47:53.000Z,24
2018-07-16T14:48:53.000Z,25
2018-07-16T14:49:53.000Z,24
2018-07-16T14:50:53.000Z,24
2018-07-16T14:51:53.000Z,25
2018-07-16T14:52:53.000Z,25
2018-07-16T14:53:53.000Z,25
2018-07-16T14:54:53.000Z,25
2018-07-16T14:55:53.000Z,25
2018-07-16T14:56:53.000Z,25
2018-07-16T14:57:53.000Z,25
2018-07-16T14:58:53.000Z,25
2018-07-16T14:59:53.000Z,25
2018-07-16T15:00:53.000Z,25
2018-07-16T15:01:53.000Z,25
2018-07-16T15:02:53.000Z,25
2018-07-16T15:04:53.000Z,25
2018-07-16T15:05:53.000Z,25
2018-07-16T15:06:53.000Z,25
2018-07-16T15:07:53.000Z,25
2018-07-16T15:08:53.000Z,25
2018-07-16T15:09:53.000Z,26
2018-07-16T15:10:53.000Z,26
2018-07-16T15:11:53.000Z,26
2018-07-16T15:12:53.000Z,26
2018-07-16T15:14:54.000Z,26
2018-07-16T15:15:54.000Z,26
2018-07-16T15:16:54.000Z,26
2018-07-16T15:17:54.000Z,26
2018-07-16T15:18:54.000Z,26
2018-07-16T15:20:54.000Z,26
2018-07-16T15:21:54.000Z,26
2018-07-16T15:22:54.000Z,26
2018-07-16T15:23:54.000Z,26
2018-07-16T15:24:54.000Z,26
2018-07-16T15:25:54.000Z,26
2018-07-16T15:26:54.000Z,26
2018-07-16T15:27:54.000Z,26
2018-07-16T15:28:54.000Z,26
2018-07-16T15:29:54.000Z,26
2018-07-16T15:30:54.000Z,26
2018-07-16T15:31:54.000Z,26
2018-07-16T15:33:54.000Z,26
2018-07-16T15:34:54.000Z,26
2018-07-16T15:35:54.000Z,26
2018-07-16T15:36:54.000Z,26
2018-07-16T15:37:54.000Z,26
2018-07-16T15:38:54.000Z,26
2018-07-16T15:39:54.000Z,26
2018-07-16T15:40:54.000Z,26
2018-07-16T15:41:54.000Z,26
2018-07-16T15:43:54.000Z,26
2018-07-16T15:44:54.000Z,27
2018-07-16T15:45:54.000Z,26
2018-07-16T15:46:54.000Z,27
2018-07-16T15:47:54.000Z,27
2018-07-16T15:48:54.000Z,27
2018-07-16T15:49:54.000Z,27
2018-07-16T15:50:54.000Z,27
2018-07-16T15:51:54.000Z,27
2018-07-16T15:52:54.000Z,27
2018-07-16T15:53:54.000Z,27
2018-07-16T15:54:54.000Z,27
2018-07-16T15:55:54.000Z,27
2018-07-16T15:56:54.000Z,27
2018-07-16T15:58:54.000Z,27
2018-07-16T15:59:54.000Z,27
2018-07-16T16:00:54.000Z,27
2018-07-16T16:01:54.000Z,27
2018-07-16T16:02:54.000Z,27
2018-07-16T16:03:54.000Z,27
2018-07-16T16:04:54.000Z,27
2018-07-16T16:05:54.000Z,27
2018-07-16T16:06:54.000Z,27
2018-07-16T16:07:54.000Z,27
2018-07-16T16:08:54.000Z,27
2018-07-16T16:09:54.000Z,27
2018-07-16T16:10:54.000Z,27
2018-07-16T16:11:54.000Z,27
2018-07-16T16:12:54.000Z,27
2018-07-16T16:13:54.000Z,27